createdAt,value
2017-09-19T00:04:15.447Z,15.09
2017-09-19T00:09:18.929Z,14.90
2017-09-19T00:14:20.933Z,15.01
2017-09-19T00:19:23.085Z,15.00
2017-09-19T00:24:25.119Z,14.94
2017-09-19T00:29:27.127Z,15.00
2017-09-19T00:34:29.134Z,14.90
2017-09-19T00:39:31.631Z,14.96
2017-09-19T00:44:33.673Z,14.86
2017-09-19T00:49:35.744Z,14.86
2017-09-19T00:54:39.129Z,14.88
2017-09-19T00:59:42.353Z,14.90
2017-09-19T01:04:44.456Z,15.04
2017-09-19T01:09:46.618Z,15.05
2017-09-19T01:14:48.716Z,15.02
2017-09-19T01:19:50.751Z,14.99
2017-09-19T01:24:52.806Z,14.82
2017-09-19T01:29:54.899Z,14.67
2017-09-19T01:34:56.947Z,14.58
2017-09-19T01:39:59.007Z,14.50
2017-09-19T01:45:01.069Z,14.42
2017-09-19T01:50:03.254Z,14.38
2017-09-19T01:55:05.344Z,14.24
2017-09-19T02:00:07.456Z,14.14
2017-09-19T02:05:09.527Z,14.05
2017-09-19T02:10:11.521Z,14.14
2017-09-19T02:15:14.351Z,14.16
2017-09-19T02:20:16.428Z,14.17
2017-09-19T02:25:18.415Z,14.10
2017-09-19T02:30:20.498Z,14.03
2017-09-19T02:35:22.541Z,13.97
2017-09-19T02:40:24.662Z,13.85
2017-09-19T02:45:26.652Z,13.81
2017-09-19T02:50:28.658Z,13.84
2017-09-19T02:55:31.555Z,13.83
2017-09-19T03:00:33.556Z,13.90
2017-09-19T03:05:35.571Z,13.95
2017-09-19T03:10:37.627Z,14.04
2017-09-19T03:15:39.908Z,14.13
2017-09-19T03:20:43.020Z,14.14
2017-09-19T03:25:45.123Z,14.23
2017-09-19T03:30:47.158Z,14.28
2017-09-19T03:35:53.820Z,14.37
2017-09-19T03:40:56.167Z,14.48
2017-09-19T03:45:58.191Z,14.58
2017-09-19T03:51:00.208Z,14.68
2017-09-19T03:56:02.290Z,14.71
2017-09-19T04:01:07.694Z,14.61
2017-09-19T04:06:09.736Z,14.73
2017-09-19T04:11:11.851Z,14.78
2017-09-19T04:16:14.617Z,14.82
2017-09-19T04:21:17.398Z,14.80
2017-09-19T04:26:19.412Z,14.62
2017-09-19T04:31:25.220Z,14.59
2017-09-19T04:36:27.332Z,14.63
2017-09-19T04:41:29.479Z,14.61
2017-09-19T04:46:31.647Z,14.79
2017-09-19T04:51:33.703Z,14.93
2017-09-19T04:56:35.704Z,14.89
2017-09-19T05:01:41.505Z,14.78
2017-09-19T05:06:44.730Z,14.71
2017-09-19T05:11:47.417Z,14.78
2017-09-19T05:16:50.628Z,14.89
2017-09-19T05:21:59.133Z,15.00
2017-09-19T05:27:01.183Z,15.07
2017-09-19T05:32:03.322Z,15.01
2017-09-19T05:37:05.486Z,15.01
2017-09-19T05:42:07.513Z,15.04
2017-09-19T05:47:09.541Z,15.00
2017-09-19T05:52:12.269Z,15.20
2017-09-19T05:57:14.428Z,15.32
2017-09-19T06:02:16.573Z,15.42
2017-09-19T06:07:18.572Z,15.49
2017-09-19T06:12:20.639Z,15.57
2017-09-19T06:17:23.110Z,15.67
2017-09-19T06:22:25.096Z,15.75
2017-09-19T06:27:27.078Z,15.80
2017-09-19T06:32:29.136Z,15.88
2017-09-19T06:37:31.211Z,15.96
2017-09-19T06:42:33.178Z,16.09
2017-09-19T06:47:35.175Z,16.21
2017-09-19T06:52:38.071Z,16.28
2017-09-19T06:57:40.076Z,16.34
2017-09-19T07:02:42.781Z,16.41
2017-09-19T07:07:44.785Z,16.31
2017-09-19T07:12:46.853Z,16.36
2017-09-19T07:17:48.969Z,16.48
2017-09-19T07:22:51.001Z,16.59
2017-09-19T07:27:52.972Z,16.67
2017-09-19T07:32:55.649Z,16.68
2017-09-19T07:37:57.671Z,16.63
2017-09-19T07:42:59.679Z,16.75
2017-09-19T07:48:03.894Z,16.94
2017-09-19T07:53:05.878Z,17.09
2017-09-19T07:58:07.889Z,17.16
2017-09-19T08:03:09.880Z,17.23
2017-09-19T08:08:11.871Z,17.08
2017-09-19T08:13:13.840Z,16.90
2017-09-19T08:18:15.880Z,16.91
2017-09-19T08:23:17.878Z,17.03
2017-09-19T08:28:20.601Z,17.81
2017-09-19T08:33:22.580Z,18.49
2017-09-19T08:38:24.583Z,19.44
2017-09-19T08:43:26.547Z,19.54
2017-09-19T08:48:28.516Z,19.65
2017-09-19T08:53:30.603Z,19.60
2017-09-19T08:58:32.568Z,19.67
2017-09-19T09:03:34.548Z,19.91
2017-09-19T09:08:37.723Z,19.90
2017-09-19T09:13:39.651Z,20.29
2017-09-19T09:18:41.602Z,20.43
2017-09-19T09:23:43.614Z,20.28
2017-09-19T09:28:46.423Z,20.05
2017-09-19T09:33:48.453Z,19.68
2017-09-19T09:38:50.935Z,19.67
2017-09-19T09:43:52.901Z,20.25
2017-09-19T09:48:54.908Z,20.51
2017-09-19T09:53:57.241Z,19.90
2017-09-19T09:58:59.977Z,19.53
2017-09-19T10:04:02.711Z,19.33
2017-09-19T10:09:05.167Z,18.98
2017-09-19T10:14:07.121Z,19.03
2017-09-19T10:19:09.133Z,19.54
2017-09-19T10:24:11.150Z,20.45
2017-09-19T10:29:13.175Z,20.40
2017-09-19T10:34:15.222Z,19.81
2017-09-19T10:39:17.597Z,19.51
2017-09-19T10:44:19.671Z,19.30
2017-09-19T10:49:23.467Z,19.32
2017-09-19T10:54:25.798Z,19.45
2017-09-19T10:59:28.565Z,19.81
2017-09-19T11:04:36.807Z,20.02
2017-09-19T11:09:44.879Z,20.54
2017-09-19T11:14:50.783Z,20.42
2017-09-19T11:19:58.011Z,20.91
2017-09-19T11:25:00.007Z,20.89
2017-09-19T11:30:05.579Z,21.14
2017-09-19T11:35:07.507Z,21.94
2017-09-19T11:40:10.182Z,21.94
2017-09-19T11:45:18.372Z,21.47
2017-09-19T11:50:20.729Z,21.00
2017-09-19T11:55:22.716Z,20.94
2017-09-19T12:00:24.668Z,21.54
2017-09-19T12:05:26.640Z,22.09
2017-09-19T12:10:29.335Z,22.59
2017-09-19T12:15:31.299Z,21.25
2017-09-19T12:20:38.389Z,20.94
2017-09-19T12:25:40.377Z,20.55
2017-09-19T12:30:43.102Z,20.44
2017-09-19T12:35:45.154Z,20.64
2017-09-19T12:40:47.230Z,20.68
2017-09-19T12:45:51.510Z,20.39
2017-09-19T12:50:53.471Z,20.04
2017-09-19T12:55:55.504Z,20.06
2017-09-19T13:00:57.461Z,20.51
2017-09-19T13:05:59.415Z,20.66
2017-09-19T13:11:01.368Z,20.90
2017-09-19T13:16:04.103Z,20.74
2017-09-19T13:21:06.065Z,20.88
2017-09-19T13:26:08.004Z,21.10
2017-09-19T13:31:28.145Z,21.36
2017-09-19T13:36:30.187Z,21.09
2017-09-19T13:41:32.232Z,21.48
2017-09-19T13:46:34.224Z,21.90
2017-09-19T13:51:36.340Z,21.91
2017-09-19T13:56:38.812Z,21.50
2017-09-19T14:01:41.088Z,21.14
2017-09-19T14:06:43.409Z,20.98
2017-09-19T14:11:45.552Z,20.99
2017-09-19T14:16:48.537Z,21.06
2017-09-19T14:21:50.673Z,21.13
2017-09-19T14:26:54.191Z,21.27
2017-09-19T14:31:56.255Z,21.51
2017-09-19T14:36:58.198Z,21.62
2017-09-19T14:42:00.129Z,21.55
2017-09-19T14:47:02.132Z,21.46
2017-09-19T14:52:04.096Z,21.53
2017-09-19T14:57:06.404Z,21.68
2017-09-19T15:02:08.611Z,21.71
2017-09-19T15:07:10.548Z,21.93
2017-09-19T15:12:12.566Z,22.10
2017-09-19T15:17:17.058Z,22.01
2017-09-19T15:22:19.161Z,21.80
2017-09-19T15:27:21.083Z,21.57
2017-09-19T15:32:29.170Z,21.70
2017-09-19T15:37:31.341Z,21.72
2017-09-19T15:42:33.306Z,21.60
2017-09-19T15:47:35.290Z,21.63
2017-09-19T15:52:37.272Z,21.49
2017-09-19T15:57:39.385Z,21.35
2017-09-19T16:02:41.394Z,21.19
2017-09-19T16:07:43.401Z,21.11
2017-09-19T16:12:45.431Z,21.04
2017-09-19T16:17:47.588Z,21.07
2017-09-19T16:22:49.555Z,21.10
2017-09-19T16:27:52.319Z,20.96
2017-09-19T16:32:54.265Z,20.82
2017-09-19T16:37:56.312Z,20.70
2017-09-19T16:42:58.326Z,20.50
2017-09-19T16:48:00.316Z,20.18
2017-09-19T16:53:02.362Z,19.89
2017-09-19T16:58:05.126Z,19.51
2017-09-19T17:03:08.167Z,19.32
2017-09-19T17:08:10.268Z,19.21
2017-09-19T17:13:12.364Z,19.03
2017-09-19T17:18:14.601Z,18.88
2017-09-19T17:23:16.797Z,18.68
2017-09-19T17:28:24.044Z,18.48
2017-09-19T17:33:26.029Z,18.31
2017-09-19T17:38:28.023Z,18.19
2017-09-19T17:43:30.036Z,18.05
2017-09-19T17:48:32.017Z,17.75
2017-09-19T17:53:34.005Z,17.71
2017-09-19T17:58:36.008Z,17.69
2017-09-19T18:03:43.732Z,17.73
2017-09-19T18:08:49.069Z,17.77
2017-09-19T18:13:51.517Z,17.80
2017-09-19T18:18:53.708Z,17.81
2017-09-19T18:23:56.603Z,17.87
2017-09-19T18:28:58.752Z,17.84
2017-09-19T18:34:01.332Z,17.80
2017-09-19T18:39:03.947Z,17.75
2017-09-19T18:44:05.943Z,17.72
2017-09-19T18:49:07.972Z,17.56
2017-09-19T18:54:10.001Z,17.55
2017-09-19T18:59:12.760Z,17.55
2017-09-19T19:04:14.883Z,17.44
2017-09-19T19:09:20.560Z,17.27
2017-09-19T19:14:27.838Z,17.35
2017-09-19T19:19:34.631Z,17.31
2017-09-19T19:24:37.078Z,17.36
2017-09-19T19:29:39.069Z,17.26
2017-09-19T19:34:43.941Z,17.25
2017-09-19T19:39:46.227Z,17.27
2017-09-19T19:44:48.926Z,17.22
2017-09-19T19:49:51.007Z,17.22
2017-09-19T19:54:53.021Z,17.25
2017-09-19T19:59:56.430Z,17.30
2017-09-19T20:04:58.555Z,17.36
2017-09-19T20:10:00.593Z,17.37
2017-09-19T20:15:02.581Z,17.29
2017-09-19T20:20:04.705Z,17.30
2017-09-19T20:25:06.721Z,17.31
2017-09-19T20:30:08.693Z,17.27
2017-09-19T20:35:10.648Z,17.23
2017-09-19T20:40:13.366Z,17.17
2017-09-19T20:45:15.413Z,17.18
2017-09-19T20:50:17.534Z,17.09
2017-09-19T20:55:19.517Z,17.08
2017-09-19T21:00:21.510Z,16.99
2017-09-19T21:05:30.173Z,16.98
2017-09-19T21:10:38.355Z,16.92
2017-09-19T21:15:46.376Z,16.82
2017-09-19T21:20:48.484Z,16.78
2017-09-19T21:25:50.484Z,16.77
2017-09-19T21:30:52.477Z,16.76
2017-09-19T21:35:54.468Z,16.75
2017-09-19T21:40:56.461Z,16.66
2017-09-19T21:45:58.433Z,16.61
2017-09-19T21:51:00.411Z,16.44
2017-09-19T21:56:02.416Z,16.35
2017-09-19T22:01:05.221Z,16.25
2017-09-19T22:06:07.325Z,16.29
2017-09-19T22:11:09.383Z,16.29
2017-09-19T22:16:11.370Z,16.41
2017-09-19T22:21:13.634Z,16.44
2017-09-19T22:26:16.099Z,16.46
2017-09-19T22:31:18.635Z,16.46
2017-09-19T22:36:20.719Z,16.39
2017-09-19T22:41:23.468Z,16.34
2017-09-19T22:46:25.451Z,16.23
2017-09-19T22:51:28.139Z,16.11
2017-09-19T22:56:30.160Z,15.99
2017-09-19T23:01:32.096Z,15.94
2017-09-19T23:06:34.450Z,15.91
2017-09-19T23:11:36.513Z,15.90
2017-09-19T23:16:38.578Z,15.88
2017-09-19T23:21:40.511Z,15.86
2017-09-19T23:26:43.251Z,15.75
2017-09-19T23:31:45.276Z,15.77
2017-09-19T23:36:49.055Z,15.73
2017-09-19T23:41:51.156Z,15.62
2017-09-19T23:46:53.144Z,15.67
2017-09-19T23:51:55.066Z,15.67
2017-09-19T23:56:57.811Z,15.71
